sensor_id;sensor_type;location;lat;lon;timestamp;P1;durP1;ratioP1;P2;durP2;ratioP2
76357;SDS011;65185;21.060;105.826;2024-03-23T00:56:12;117.35;;;51.63;;
76357;SDS011;65185;21.060;105.826;2024-03-23T00:58:39;102.45;;;50.10;;
76357;SDS011;65185;21.060;105.826;2024-03-23T01:01:06;102.78;;;49.97;;
76357;SDS011;65185;21.060;105.826;2024-03-23T01:03:33;91.82;;;45.70;;
76357;SDS011;65185;21.060;105.826;2024-03-23T01:06:01;97.10;;;46.53;;
76357;SDS011;65185;21.060;105.826;2024-03-23T01:08:31;93.18;;;45.35;;
76357;SDS011;65185;21.060;105.826;2024-03-23T01:10:59;88.32;;;44.40;;
76357;SDS011;65185;21.060;105.826;2024-03-23T01:13:28;85.13;;;44.38;;
76357;SDS011;65185;21.060;105.826;2024-03-23T01:15:55;103.20;;;50.25;;
76357;SDS011;65185;21.060;105.826;2024-03-23T01:18:23;99.65;;;50.25;;
76357;SDS011;65185;21.060;105.826;2024-03-23T01:20:52;100.90;;;49.40;;
76357;SDS011;65185;21.060;105.826;2024-03-23T01:23:19;96.28;;;50.47;;
76357;SDS011;65185;21.060;105.826;2024-03-23T01:25:52;100.15;;;51.65;;
76357;SDS011;65185;21.060;105.826;2024-03-23T01:28:20;95.80;;;47.83;;
76357;SDS011;65185;21.060;105.826;2024-03-23T01:30:48;101.07;;;53.78;;
76357;SDS011;65185;21.060;105.826;2024-03-23T01:33:15;103.05;;;54.50;;
76357;SDS011;65185;21.060;105.826;2024-03-23T01:35:42;111.82;;;57.70;;
76357;SDS011;65185;21.060;105.826;2024-03-23T01:38:09;104.85;;;53.55;;
76357;SDS011;65185;21.060;105.826;2024-03-23T01:40:36;116.68;;;57.60;;
76357;SDS011;65185;21.060;105.826;2024-03-23T01:43:04;109.10;;;56.53;;
76357;SDS011;65185;21.060;105.826;2024-03-23T01:45:33;122.07;;;57.28;;
76357;SDS011;65185;21.060;105.826;2024-03-23T01:48:01;109.38;;;54.47;;
76357;SDS011;65185;21.060;105.826;2024-03-23T01:50:28;96.03;;;52.47;;
76357;SDS011;65185;21.060;105.826;2024-03-23T01:53:03;95.28;;;49.65;;
76357;SDS011;65185;21.060;105.826;2024-03-23T01:55:32;97.35;;;52.47;;
76357;SDS011;65185;21.060;105.826;2024-03-23T01:57:59;101.65;;;53.28;;
76357;SDS011;65185;21.060;105.826;2024-03-23T02:00:26;104.05;;;53.90;;
76357;SDS011;65185;21.060;105.826;2024-03-23T02:02:53;100.53;;;52.40;;
76357;SDS011;65185;21.060;105.826;2024-03-23T02:05:21;104.63;;;53.35;;
76357;SDS011;65185;21.060;105.826;2024-03-23T02:07:48;115.32;;;57.40;;
76357;SDS011;65185;21.060;105.826;2024-03-23T02:10:16;109.38;;;55.67;;
76357;SDS011;65185;21.060;105.826;2024-03-23T02:12:43;115.68;;;59.97;;
76357;SDS011;65185;21.060;105.826;2024-03-23T02:15:10;116.20;;;57.20;;
76357;SDS011;65185;21.060;105.826;2024-03-23T02:17:37;111.20;;;56.97;;
76357;SDS011;65185;21.060;105.826;2024-03-23T02:20:04;119.53;;;60.75;;
76357;SDS011;65185;21.060;105.826;2024-03-23T02:22:38;105.55;;;56.95;;
76357;SDS011;65185;21.060;105.826;2024-03-23T02:25:05;108.75;;;55.55;;
76357;SDS011;65185;21.060;105.826;2024-03-23T02:27:33;127.03;;;62.17;;
76357;SDS011;65185;21.060;105.826;2024-03-23T02:30:04;116.43;;;57.50;;
76357;SDS011;65185;21.060;105.826;2024-03-23T02:32:32;115.78;;;56.35;;
76357;SDS011;65185;21.060;105.826;2024-03-23T02:34:59;116.28;;;56.95;;
76357;SDS011;65185;21.060;105.826;2024-03-23T02:37:26;116.95;;;56.72;;
76357;SDS011;65185;21.060;105.826;2024-03-23T02:39:53;100.43;;;52.10;;
76357;SDS011;65185;21.060;105.826;2024-03-23T02:42:20;94.07;;;49.10;;
76357;SDS011;65185;21.060;105.826;2024-03-23T02:44:47;108.28;;;53.50;;
76357;SDS011;65185;21.060;105.826;2024-03-23T02:47:14;97.80;;;49.80;;
76357;SDS011;65185;21.060;105.826;2024-03-23T02:49:41;106.90;;;53.85;;
76357;SDS011;65185;21.060;105.826;2024-03-23T02:52:08;95.78;;;49.25;;
76357;SDS011;65185;21.060;105.826;2024-03-23T02:54:35;105.90;;;51.15;;
76357;SDS011;65185;21.060;105.826;2024-03-23T02:57:02;90.38;;;46.72;;
76357;SDS011;65185;21.060;105.826;2024-03-23T02:59:30;91.25;;;47.78;;
76357;SDS011;65185;21.060;105.826;2024-03-23T03:01:57;95.45;;;49.55;;
76357;SDS011;65185;21.060;105.826;2024-03-23T03:04:25;87.75;;;47.53;;
76357;SDS011;65185;21.060;105.826;2024-03-23T03:06:52;106.45;;;57.70;;
76357;SDS011;65185;21.060;105.826;2024-03-23T03:09:19;95.18;;;51.25;;
76357;SDS011;65185;21.060;105.826;2024-03-23T03:11:46;93.70;;;53.17;;
76357;SDS011;65185;21.060;105.826;2024-03-23T03:14:13;101.93;;;57.38;;
76357;SDS011;65185;21.060;105.826;2024-03-23T03:16:40;102.75;;;53.60;;
76357;SDS011;65185;21.060;105.826;2024-03-23T03:19:07;100.00;;;58.58;;
76357;SDS011;65185;21.060;105.826;2024-03-23T03:21:36;97.47;;;54.97;;
76357;SDS011;65185;21.060;105.826;2024-03-23T03:24:05;92.68;;;52.40;;
76357;SDS011;65185;21.060;105.826;2024-03-23T03:26:33;96.78;;;53.92;;
76357;SDS011;65185;21.060;105.826;2024-03-23T03:29:00;95.65;;;55.55;;
76357;SDS011;65185;21.060;105.826;2024-03-23T03:31:27;87.25;;;50.45;;
76357;SDS011;65185;21.060;105.826;2024-03-23T03:33:54;89.63;;;49.40;;
76357;SDS011;65185;21.060;105.826;2024-03-23T03:36:21;82.93;;;49.95;;
76357;SDS011;65185;21.060;105.826;2024-03-23T03:38:48;80.80;;;48.42;;
76357;SDS011;65185;21.060;105.826;2024-03-23T03:41:15;89.68;;;51.15;;
76357;SDS011;65185;21.060;105.826;2024-03-23T03:43:42;88.05;;;52.50;;
76357;SDS011;65185;21.060;105.826;2024-03-23T03:46:09;86.80;;;51.97;;
76357;SDS011;65185;21.060;105.826;2024-03-23T03:48:37;80.45;;;50.15;;
76357;SDS011;65185;21.060;105.826;2024-03-23T03:51:04;78.10;;;47.33;;
76357;SDS011;65185;21.060;105.826;2024-03-23T03:53:31;83.38;;;51.47;;
76357;SDS011;65185;21.060;105.826;2024-03-23T03:56:01;83.18;;;49.70;;
76357;SDS011;65185;21.060;105.826;2024-03-23T03:58:28;90.25;;;54.28;;
76357;SDS011;65185;21.060;105.826;2024-03-23T04:00:55;78.00;;;49.22;;
76357;SDS011;65185;21.060;105.826;2024-03-23T04:03:22;71.38;;;45.72;;
76357;SDS011;65185;21.060;105.826;2024-03-23T04:05:50;88.07;;;51.78;;
76357;SDS011;65185;21.060;105.826;2024-03-23T04:08:18;83.55;;;52.75;;
76357;SDS011;65185;21.060;105.826;2024-03-23T04:10:46;78.20;;;49.08;;
76357;SDS011;65185;21.060;105.826;2024-03-23T04:13:13;86.68;;;52.63;;
76357;SDS011;65185;21.060;105.826;2024-03-23T04:15:40;83.90;;;50.78;;
76357;SDS011;65185;21.060;105.826;2024-03-23T04:18:08;82.38;;;51.47;;
76357;SDS011;65185;21.060;105.826;2024-03-23T04:20:35;71.20;;;45.75;;
76357;SDS011;65185;21.060;105.826;2024-03-23T04:23:02;76.55;;;49.65;;
76357;SDS011;65185;21.060;105.826;2024-03-23T04:25:30;77.35;;;48.80;;
76357;SDS011;65185;21.060;105.826;2024-03-23T04:27:57;81.70;;;52.03;;
76357;SDS011;65185;21.060;105.826;2024-03-23T04:30:24;78.35;;;50.42;;
76357;SDS011;65185;21.060;105.826;2024-03-23T04:35:20;83.10;;;54.03;;
76357;SDS011;65185;21.060;105.826;2024-03-23T04:37:50;78.18;;;53.13;;
76357;SDS011;65185;21.060;105.826;2024-03-23T04:40:27;84.28;;;55.42;;
76357;SDS011;65185;21.060;105.826;2024-03-23T04:42:54;77.15;;;52.22;;
76357;SDS011;65185;21.060;105.826;2024-03-23T04:45:21;75.18;;;49.90;;
76357;SDS011;65185;21.060;105.826;2024-03-23T04:47:48;88.68;;;57.38;;
76357;SDS011;65185;21.060;105.826;2024-03-23T04:50:15;89.22;;;55.85;;
76357;SDS011;65185;21.060;105.826;2024-03-23T04:52:42;79.15;;;51.53;;
76357;SDS011;65185;21.060;105.826;2024-03-23T04:55:09;86.28;;;53.45;;
76357;SDS011;65185;21.060;105.826;2024-03-23T04:57:37;81.32;;;53.65;;
76357;SDS011;65185;21.060;105.826;2024-03-23T05:00:05;80.47;;;51.58;;
76357;SDS011;65185;21.060;105.826;2024-03-23T05:02:43;83.45;;;55.17;;
76357;SDS011;65185;21.060;105.826;2024-03-23T05:05:11;78.15;;;51.92;;
76357;SDS011;65185;21.060;105.826;2024-03-23T05:07:38;71.68;;;49.72;;
76357;SDS011;65185;21.060;105.826;2024-03-23T05:10:08;71.32;;;47.38;;
76357;SDS011;65185;21.060;105.826;2024-03-23T05:12:37;73.00;;;47.17;;
76357;SDS011;65185;21.060;105.826;2024-03-23T05:15:04;74.57;;;46.88;;
76357;SDS011;65185;21.060;105.826;2024-03-23T05:17:33;77.22;;;50.85;;
76357;SDS011;65185;21.060;105.826;2024-03-23T05:20:01;69.95;;;46.72;;
76357;SDS011;65185;21.060;105.826;2024-03-23T05:22:29;68.18;;;47.40;;
76357;SDS011;65185;21.060;105.826;2024-03-23T05:24:56;75.75;;;50.67;;
76357;SDS011;65185;21.060;105.826;2024-03-23T05:27:23;79.43;;;50.10;;
76357;SDS011;65185;21.060;105.826;2024-03-23T05:29:50;72.63;;;47.45;;
76357;SDS011;65185;21.060;105.826;2024-03-23T05:32:17;70.40;;;45.78;;
76357;SDS011;65185;21.060;105.826;2024-03-23T05:34:44;67.70;;;42.05;;
76357;SDS011;65185;21.060;105.826;2024-03-23T05:37:11;66.20;;;43.58;;
76357;SDS011;65185;21.060;105.826;2024-03-23T05:39:38;63.30;;;42.33;;
76357;SDS011;65185;21.060;105.826;2024-03-23T05:42:05;62.60;;;41.20;;
76357;SDS011;65185;21.060;105.826;2024-03-23T05:44:33;64.57;;;42.17;;
76357;SDS011;65185;21.060;105.826;2024-03-23T05:47:00;72.57;;;41.38;;
76357;SDS011;65185;21.060;105.826;2024-03-23T05:49:27;58.30;;;38.45;;
76357;SDS011;65185;21.060;105.826;2024-03-23T05:51:54;63.38;;;40.25;;
76357;SDS011;65185;21.060;105.826;2024-03-23T05:54:21;68.47;;;41.25;;
76357;SDS011;65185;21.060;105.826;2024-03-23T05:56:48;76.97;;;47.33;;
76357;SDS011;65185;21.060;105.826;2024-03-23T05:59:15;76.57;;;48.33;;
76357;SDS011;65185;21.060;105.826;2024-03-23T06:01:42;75.72;;;47.47;;
76357;SDS011;65185;21.060;105.826;2024-03-23T06:04:09;74.75;;;46.38;;
76357;SDS011;65185;21.060;105.826;2024-03-23T06:06:36;82.15;;;51.00;;
76357;SDS011;65185;21.060;105.826;2024-03-23T06:09:03;85.32;;;55.40;;
76357;SDS011;65185;21.060;105.826;2024-03-23T06:11:30;89.82;;;56.80;;
76357;SDS011;65185;21.060;105.826;2024-03-23T06:13:57;91.28;;;60.30;;
76357;SDS011;65185;21.060;105.826;2024-03-23T06:16:24;94.20;;;61.08;;
76357;SDS011;65185;21.060;105.826;2024-03-23T06:18:52;83.00;;;54.38;;
76357;SDS011;65185;21.060;105.826;2024-03-23T06:21:20;82.93;;;52.72;;
76357;SDS011;65185;21.060;105.826;2024-03-23T06:23:51;93.85;;;57.80;;
76357;SDS011;65185;21.060;105.826;2024-03-23T06:28:45;83.50;;;50.42;;
76357;SDS011;65185;21.060;105.826;2024-03-23T06:31:13;80.05;;;46.70;;
76357;SDS011;65185;21.060;105.826;2024-03-23T06:33:41;78.55;;;49.38;;
76357;SDS011;65185;21.060;105.826;2024-03-23T06:36:11;82.47;;;53.03;;
76357;SDS011;65185;21.060;105.826;2024-03-23T06:38:38;77.93;;;47.45;;
76357;SDS011;65185;21.060;105.826;2024-03-23T06:41:05;70.18;;;44.78;;
76357;SDS011;65185;21.060;105.826;2024-03-23T06:43:32;60.28;;;39.63;;
76357;SDS011;65185;21.060;105.826;2024-03-23T06:45:59;70.80;;;43.38;;
76357;SDS011;65185;21.060;105.826;2024-03-23T06:48:29;66.13;;;40.15;;
76357;SDS011;65185;21.060;105.826;2024-03-23T06:50:59;70.50;;;42.40;;
76357;SDS011;65185;21.060;105.826;2024-03-23T06:53:30;68.78;;;43.05;;
76357;SDS011;65185;21.060;105.826;2024-03-23T06:55:57;70.72;;;42.30;;
76357;SDS011;65185;21.060;105.826;2024-03-23T06:58:25;57.80;;;35.90;;
76357;SDS011;65185;21.060;105.826;2024-03-23T07:00:52;69.55;;;40.33;;
76357;SDS011;65185;21.060;105.826;2024-03-23T07:03:19;67.10;;;41.50;;
76357;SDS011;65185;21.060;105.826;2024-03-23T07:05:47;69.18;;;39.88;;
76357;SDS011;65185;21.060;105.826;2024-03-23T07:08:14;62.72;;;39.10;;
76357;SDS011;65185;21.060;105.826;2024-03-23T07:10:46;64.93;;;39.17;;
76357;SDS011;65185;21.060;105.826;2024-03-23T07:13:14;59.38;;;35.22;;
76357;SDS011;65185;21.060;105.826;2024-03-23T07:15:41;67.20;;;38.45;;
76357;SDS011;65185;21.060;105.826;2024-03-23T07:18:08;63.65;;;37.88;;
76357;SDS011;65185;21.060;105.826;2024-03-23T07:20:35;64.95;;;36.75;;
76357;SDS011;65185;21.060;105.826;2024-03-23T07:23:02;62.35;;;37.47;;
76357;SDS011;65185;21.060;105.826;2024-03-23T07:25:30;60.75;;;35.92;;
76357;SDS011;65185;21.060;105.826;2024-03-23T07:27:57;58.40;;;32.10;;
76357;SDS011;65185;21.060;105.826;2024-03-23T07:30:25;55.33;;;33.08;;
76357;SDS011;65185;21.060;105.826;2024-03-23T07:32:52;57.13;;;34.03;;
76357;SDS011;65185;21.060;105.826;2024-03-23T07:35:19;54.30;;;33.95;;
76357;SDS011;65185;21.060;105.826;2024-03-23T07:37:46;52.83;;;32.88;;
76357;SDS011;65185;21.060;105.826;2024-03-23T07:40:13;47.72;;;31.48;;
76357;SDS011;65185;21.060;105.826;2024-03-23T07:42:40;53.10;;;33.75;;
76357;SDS011;65185;21.060;105.826;2024-03-23T07:45:07;57.97;;;34.00;;
76357;SDS011;65185;21.060;105.826;2024-03-23T07:47:35;49.67;;;31.80;;
76357;SDS011;65185;21.060;105.826;2024-03-23T07:50:02;51.72;;;31.10;;
76357;SDS011;65185;21.060;105.826;2024-03-23T07:52:29;51.17;;;31.80;;
76357;SDS011;65185;21.060;105.826;2024-03-23T07:54:56;56.92;;;31.58;;
76357;SDS011;65185;21.060;105.826;2024-03-23T07:57:23;51.08;;;29.88;;
76357;SDS011;65185;21.060;105.826;2024-03-23T07:59:50;48.58;;;30.33;;
76357;SDS011;65185;21.060;105.826;2024-03-23T08:02:17;53.90;;;31.85;;
76357;SDS011;65185;21.060;105.826;2024-03-23T08:04:44;48.92;;;30.67;;
76357;SDS011;65185;21.060;105.826;2024-03-23T08:07:11;50.53;;;31.00;;
76357;SDS011;65185;21.060;105.826;2024-03-23T08:09:38;48.10;;;28.30;;
76357;SDS011;65185;21.060;105.826;2024-03-23T08:12:05;44.05;;;27.00;;
76357;SDS011;65185;21.060;105.826;2024-03-23T08:14:33;46.00;;;27.67;;
76357;SDS011;65185;21.060;105.826;2024-03-23T08:17:00;50.25;;;28.45;;
76357;SDS011;65185;21.060;105.826;2024-03-23T08:19:27;46.35;;;26.88;;
76357;SDS011;65185;21.060;105.826;2024-03-23T08:21:54;43.80;;;26.67;;
76357;SDS011;65185;21.060;105.826;2024-03-23T08:24:21;49.72;;;29.00;;
76357;SDS011;65185;21.060;105.826;2024-03-23T08:26:48;48.72;;;27.73;;
76357;SDS011;65185;21.060;105.826;2024-03-23T08:29:15;48.47;;;26.25;;
76357;SDS011;65185;21.060;105.826;2024-03-23T08:31:42;43.17;;;26.27;;
76357;SDS011;65185;21.060;105.826;2024-03-23T08:34:09;45.10;;;26.70;;
76357;SDS011;65185;21.060;105.826;2024-03-23T08:36:36;51.13;;;27.33;;
76357;SDS011;65185;21.060;105.826;2024-03-23T08:39:03;48.20;;;26.98;;
76357;SDS011;65185;21.060;105.826;2024-03-23T08:41:30;42.80;;;26.95;;
76357;SDS011;65185;21.060;105.826;2024-03-23T08:43:58;43.95;;;26.63;;
76357;SDS011;65185;21.060;105.826;2024-03-23T08:46:25;45.53;;;27.70;;
76357;SDS011;65185;21.060;105.826;2024-03-23T08:48:53;51.30;;;29.35;;
76357;SDS011;65185;21.060;105.826;2024-03-23T08:51:20;51.30;;;29.45;;
76357;SDS011;65185;21.060;105.826;2024-03-23T08:53:47;54.22;;;29.90;;
76357;SDS011;65185;21.060;105.826;2024-03-23T08:56:14;49.58;;;28.83;;
76357;SDS011;65185;21.060;105.826;2024-03-23T08:58:41;45.05;;;27.85;;
76357;SDS011;65185;21.060;105.826;2024-03-23T09:01:09;50.60;;;28.90;;
76357;SDS011;65185;21.060;105.826;2024-03-23T09:03:39;53.40;;;31.02;;
76357;SDS011;65185;21.060;105.826;2024-03-23T09:06:07;47.97;;;30.52;;
76357;SDS011;65185;21.060;105.826;2024-03-23T09:08:35;51.40;;;28.35;;
76357;SDS011;65185;21.060;105.826;2024-03-23T09:11:05;47.08;;;28.65;;
76357;SDS011;65185;21.060;105.826;2024-03-23T09:13:34;49.65;;;28.92;;
76357;SDS011;65185;21.060;105.826;2024-03-23T09:16:02;50.17;;;28.45;;
76357;SDS011;65185;21.060;105.826;2024-03-23T09:18:34;47.25;;;28.05;;
76357;SDS011;65185;21.060;105.826;2024-03-23T09:21:02;43.70;;;26.02;;
76357;SDS011;65185;21.060;105.826;2024-03-23T09:23:29;48.38;;;26.63;;
76357;SDS011;65185;21.060;105.826;2024-03-23T09:25:56;41.17;;;24.85;;
76357;SDS011;65185;21.060;105.826;2024-03-23T09:28:23;45.65;;;27.05;;
76357;SDS011;65185;21.060;105.826;2024-03-23T09:30:50;45.10;;;26.70;;
76357;SDS011;65185;21.060;105.826;2024-03-23T09:33:17;51.78;;;27.60;;
76357;SDS011;65185;21.060;105.826;2024-03-23T09:35:45;42.92;;;26.50;;
76357;SDS011;65185;21.060;105.826;2024-03-23T09:38:14;47.00;;;26.17;;
76357;SDS011;65185;21.060;105.826;2024-03-23T09:40:42;44.42;;;25.75;;
76357;SDS011;65185;21.060;105.826;2024-03-23T09:43:11;46.03;;;26.02;;
76357;SDS011;65185;21.060;105.826;2024-03-23T09:45:39;43.30;;;25.20;;
76357;SDS011;65185;21.060;105.826;2024-03-23T09:48:08;43.22;;;24.80;;
76357;SDS011;65185;21.060;105.826;2024-03-23T09:50:37;44.50;;;24.98;;
76357;SDS011;65185;21.060;105.826;2024-03-23T09:53:06;44.47;;;25.65;;
76357;SDS011;65185;21.060;105.826;2024-03-23T09:55:34;46.20;;;25.27;;
76357;SDS011;65185;21.060;105.826;2024-03-23T09:58:02;43.17;;;25.75;;
76357;SDS011;65185;21.060;105.826;2024-03-23T10:00:33;46.17;;;25.60;;
76357;SDS011;65185;21.060;105.826;2024-03-23T10:03:01;48.60;;;25.05;;
76357;SDS011;65185;21.060;105.826;2024-03-23T10:05:28;45.60;;;25.15;;
76357;SDS011;65185;21.060;105.826;2024-03-23T10:10:41;52.17;;;24.52;;
76357;SDS011;65185;21.060;105.826;2024-03-23T10:13:08;42.95;;;24.50;;
76357;SDS011;65185;21.060;105.826;2024-03-23T10:15:36;52.38;;;25.08;;
76357;SDS011;65185;21.060;105.826;2024-03-23T10:20:54;46.97;;;24.48;;
76357;SDS011;65185;21.060;105.826;2024-03-23T10:23:34;48.65;;;23.63;;
76357;SDS011;65185;21.060;105.826;2024-03-23T10:26:14;45.10;;;22.83;;
76357;SDS011;65185;21.060;105.826;2024-03-23T10:31:48;45.17;;;23.63;;
76357;SDS011;65185;21.060;105.826;2024-03-23T10:34:15;43.70;;;23.73;;
76357;SDS011;65185;21.060;105.826;2024-03-23T10:36:42;43.75;;;24.50;;
76357;SDS011;65185;21.060;105.826;2024-03-23T10:39:10;49.50;;;25.17;;
76357;SDS011;65185;21.060;105.826;2024-03-23T10:41:38;45.38;;;23.58;;
76357;SDS011;65185;21.060;105.826;2024-03-23T10:44:07;45.08;;;24.58;;
76357;SDS011;65185;21.060;105.826;2024-03-23T10:46:34;52.80;;;24.00;;
76357;SDS011;65185;21.060;105.826;2024-03-23T10:49:03;54.70;;;25.55;;
76357;SDS011;65185;21.060;105.826;2024-03-23T10:51:30;55.50;;;26.63;;
76357;SDS011;65185;21.060;105.826;2024-03-23T10:53:57;42.83;;;23.02;;
76357;SDS011;65185;21.060;105.826;2024-03-23T10:56:26;48.60;;;24.50;;
76357;SDS011;65185;21.060;105.826;2024-03-23T10:58:59;48.80;;;22.73;;
76357;SDS011;65185;21.060;105.826;2024-03-23T11:03:55;49.88;;;25.70;;
76357;SDS011;65185;21.060;105.826;2024-03-23T11:06:35;50.47;;;25.42;;
76357;SDS011;65185;21.060;105.826;2024-03-23T11:09:02;52.17;;;25.33;;
76357;SDS011;65185;21.060;105.826;2024-03-23T11:11:30;49.42;;;26.13;;
76357;SDS011;65185;21.060;105.826;2024-03-23T11:13:59;54.63;;;26.58;;
76357;SDS011;65185;21.060;105.826;2024-03-23T11:16:26;49.67;;;25.25;;
76357;SDS011;65185;21.060;105.826;2024-03-23T11:22:07;53.00;;;26.55;;
76357;SDS011;65185;21.060;105.826;2024-03-23T11:24:34;44.20;;;25.73;;
76357;SDS011;65185;21.060;105.826;2024-03-23T11:27:01;53.05;;;27.15;;
76357;SDS011;65185;21.060;105.826;2024-03-23T11:29:29;50.83;;;26.58;;
76357;SDS011;65185;21.060;105.826;2024-03-23T11:31:56;55.25;;;27.83;;
76357;SDS011;65185;21.060;105.826;2024-03-23T11:34:24;54.78;;;29.25;;
76357;SDS011;65185;21.060;105.826;2024-03-23T11:36:51;58.67;;;27.08;;
76357;SDS011;65185;21.060;105.826;2024-03-23T11:39:31;52.05;;;27.65;;
76357;SDS011;65185;21.060;105.826;2024-03-23T11:41:58;56.55;;;27.10;;
76357;SDS011;65185;21.060;105.826;2024-03-23T11:44:26;52.13;;;27.67;;
76357;SDS011;65185;21.060;105.826;2024-03-23T11:46:53;53.55;;;26.90;;
76357;SDS011;65185;21.060;105.826;2024-03-23T11:49:33;48.25;;;25.92;;
76357;SDS011;65185;21.060;105.826;2024-03-23T11:52:06;57.30;;;28.55;;
76357;SDS011;65185;21.060;105.826;2024-03-23T11:54:33;52.40;;;29.25;;
76357;SDS011;65185;21.060;105.826;2024-03-23T11:57:02;54.50;;;28.02;;
76357;SDS011;65185;21.060;105.826;2024-03-23T12:02:09;56.88;;;30.38;;
76357;SDS011;65185;21.060;105.826;2024-03-23T12:04:39;56.33;;;28.08;;
76357;SDS011;65185;21.060;105.826;2024-03-23T12:09:40;49.17;;;27.20;;
76357;SDS011;65185;21.060;105.826;2024-03-23T12:12:13;57.92;;;28.92;;
76357;SDS011;65185;21.060;105.826;2024-03-23T12:14:45;53.83;;;28.60;;
76357;SDS011;65185;21.060;105.826;2024-03-23T12:17:28;54.08;;;29.45;;
76357;SDS011;65185;21.060;105.826;2024-03-23T12:19:55;57.28;;;29.20;;
76357;SDS011;65185;21.060;105.826;2024-03-23T12:22:22;51.78;;;28.73;;
76357;SDS011;65185;21.060;105.826;2024-03-23T12:24:50;51.13;;;27.73;;
76357;SDS011;65185;21.060;105.826;2024-03-23T12:27:17;54.92;;;27.92;;
76357;SDS011;65185;21.060;105.826;2024-03-23T12:29:44;60.50;;;29.70;;
76357;SDS011;65185;21.060;105.826;2024-03-23T12:32:12;60.95;;;30.05;;
76357;SDS011;65185;21.060;105.826;2024-03-23T12:34:41;49.20;;;26.92;;
76357;SDS011;65185;21.060;105.826;2024-03-23T12:37:08;60.50;;;29.73;;
76357;SDS011;65185;21.060;105.826;2024-03-23T12:39:35;56.90;;;31.15;;
76357;SDS011;65185;21.060;105.826;2024-03-23T12:42:03;53.78;;;29.50;;
76357;SDS011;65185;21.060;105.826;2024-03-23T12:44:30;54.17;;;29.98;;
76357;SDS011;65185;21.060;105.826;2024-03-23T12:46:57;49.65;;;29.42;;
76357;SDS011;65185;21.060;105.826;2024-03-23T12:49:24;57.05;;;31.55;;
76357;SDS011;65185;21.060;105.826;2024-03-23T12:51:54;55.05;;;30.23;;
76357;SDS011;65185;21.060;105.826;2024-03-23T12:54:22;55.05;;;30.70;;
76357;SDS011;65185;21.060;105.826;2024-03-23T12:56:50;50.88;;;29.63;;
76357;SDS011;65185;21.060;105.826;2024-03-23T12:59:17;58.20;;;31.85;;
76357;SDS011;65185;21.060;105.826;2024-03-23T13:01:45;58.38;;;32.53;;
76357;SDS011;65185;21.060;105.826;2024-03-23T13:04:12;59.47;;;31.80;;
76357;SDS011;65185;21.060;105.826;2024-03-23T13:06:39;64.30;;;32.42;;
76357;SDS011;65185;21.060;105.826;2024-03-23T13:09:06;60.63;;;33.30;;
76357;SDS011;65185;21.060;105.826;2024-03-23T13:11:34;65.35;;;32.10;;
76357;SDS011;65185;21.060;105.826;2024-03-23T13:14:01;56.20;;;31.83;;
76357;SDS011;65185;21.060;105.826;2024-03-23T13:16:29;54.55;;;31.55;;
76357;SDS011;65185;21.060;105.826;2024-03-23T13:18:56;62.65;;;32.72;;
76357;SDS011;65185;21.060;105.826;2024-03-23T13:21:23;59.45;;;32.83;;
76357;SDS011;65185;21.060;105.826;2024-03-23T13:23:50;58.55;;;32.90;;
76357;SDS011;65185;21.060;105.826;2024-03-23T13:26:17;64.55;;;33.10;;
76357;SDS011;65185;21.060;105.826;2024-03-23T13:28:44;60.53;;;33.97;;
76357;SDS011;65185;21.060;105.826;2024-03-23T13:31:11;64.50;;;33.97;;
76357;SDS011;65185;21.060;105.826;2024-03-23T13:33:38;60.88;;;32.92;;
76357;SDS011;65185;21.060;105.826;2024-03-23T13:36:07;60.60;;;32.95;;
76357;SDS011;65185;21.060;105.826;2024-03-23T13:38:35;63.10;;;32.75;;
76357;SDS011;65185;21.060;105.826;2024-03-23T13:41:02;57.97;;;31.80;;
76357;SDS011;65185;21.060;105.826;2024-03-23T13:43:30;62.33;;;33.30;;
76357;SDS011;65185;21.060;105.826;2024-03-23T13:45:57;63.28;;;31.77;;
76357;SDS011;65185;21.060;105.826;2024-03-23T13:48:26;54.45;;;30.95;;
76357;SDS011;65185;21.060;105.826;2024-03-23T13:53:28;61.65;;;31.10;;
76357;SDS011;65185;21.060;105.826;2024-03-23T13:55:55;52.35;;;30.27;;
76357;SDS011;65185;21.060;105.826;2024-03-23T13:58:22;61.97;;;29.10;;
76357;SDS011;65185;21.060;105.826;2024-03-23T14:00:51;50.65;;;29.77;;
76357;SDS011;65185;21.060;105.826;2024-03-23T14:03:18;57.08;;;30.73;;
76357;SDS011;65185;21.060;105.826;2024-03-23T14:05:46;57.33;;;30.95;;
76357;SDS011;65185;21.060;105.826;2024-03-23T14:08:13;51.15;;;30.15;;
76357;SDS011;65185;21.060;105.826;2024-03-23T14:10:40;54.72;;;30.17;;
76357;SDS011;65185;21.060;105.826;2024-03-23T14:13:08;53.75;;;29.58;;
76357;SDS011;65185;21.060;105.826;2024-03-23T14:15:35;53.28;;;29.90;;
76357;SDS011;65185;21.060;105.826;2024-03-23T14:18:02;56.97;;;28.88;;
76357;SDS011;65185;21.060;105.826;2024-03-23T14:20:29;50.75;;;28.52;;
76357;SDS011;65185;21.060;105.826;2024-03-23T14:22:56;54.83;;;29.75;;
76357;SDS011;65185;21.060;105.826;2024-03-23T14:25:24;48.92;;;27.70;;
76357;SDS011;65185;21.060;105.826;2024-03-23T14:27:54;58.83;;;31.55;;
76357;SDS011;65185;21.060;105.826;2024-03-23T14:30:21;55.83;;;30.63;;
76357;SDS011;65185;21.060;105.826;2024-03-23T14:32:48;54.13;;;30.55;;
76357;SDS011;65185;21.060;105.826;2024-03-23T14:35:16;58.25;;;32.17;;
76357;SDS011;65185;21.060;105.826;2024-03-23T14:37:44;51.40;;;30.30;;
76357;SDS011;65185;21.060;105.826;2024-03-23T14:40:12;59.17;;;32.17;;
76357;SDS011;65185;21.060;105.826;2024-03-23T14:42:39;59.75;;;31.40;;
76357;SDS011;65185;21.060;105.826;2024-03-23T14:45:07;58.58;;;32.35;;
76357;SDS011;65185;21.060;105.826;2024-03-23T14:47:34;54.95;;;31.10;;
76357;SDS011;65185;21.060;105.826;2024-03-23T14:50:01;50.13;;;30.42;;
76357;SDS011;65185;21.060;105.826;2024-03-23T14:52:28;53.40;;;31.60;;
76357;SDS011;65185;21.060;105.826;2024-03-23T14:54:55;53.45;;;31.33;;
76357;SDS011;65185;21.060;105.826;2024-03-23T14:57:22;54.90;;;30.90;;
76357;SDS011;65185;21.060;105.826;2024-03-23T14:59:49;56.97;;;32.42;;
76357;SDS011;65185;21.060;105.826;2024-03-23T15:02:17;59.10;;;32.90;;
76357;SDS011;65185;21.060;105.826;2024-03-23T15:04:44;57.50;;;33.03;;
76357;SDS011;65185;21.060;105.826;2024-03-23T15:07:11;57.28;;;32.88;;
76357;SDS011;65185;21.060;105.826;2024-03-23T15:09:38;57.78;;;33.25;;
76357;SDS011;65185;21.060;105.826;2024-03-23T15:12:05;61.20;;;34.85;;
76357;SDS011;65185;21.060;105.826;2024-03-23T15:14:33;56.30;;;32.97;;
76357;SDS011;65185;21.060;105.826;2024-03-23T15:17:00;54.78;;;33.55;;
76357;SDS011;65185;21.060;105.826;2024-03-23T15:19:30;59.90;;;34.47;;
76357;SDS011;65185;21.060;105.826;2024-03-23T15:21:57;61.92;;;34.53;;